Time;durP1;ratioP1;P1;durP2;ratioP2;P2;SDS_P1;SDS_P2;PMS_P1;PMS_P2;Temp;Humidity;BMP_temperature;BMP_pressure;BME280_temperature;BME280_humidity;BME280_pressure;Samples;Min_cycle;Max_cycle;Signal;HPM_P1;HPM_P2
2020/12/30 00:00:31;;;;;;;2.80;1.15;;;3.90;99.90;;;;;;5087900;28;20028;-62
2020/12/30 00:02:57;;;;;;;1.67;0.93;;;3.90;99.90;;;;;;5088537;28;20024;-62
2020/12/30 00:05:23;;;;;;;1.38;0.80;;;4.00;99.90;;;;;;5083271;28;20059;-62
2020/12/30 00:07:49;;;;;;;2.38;1.30;;;4.00;99.90;;;;;;5089207;28;20024;-61
2020/12/30 00:10:17;;;;;;;1.98;1.00;;;3.90;99.90;;;;;;5079956;28;20030;-62
2020/12/30 00:12:43;;;;;;;0.80;0.60;;;4.00;99.90;;;;;;5078470;28;20029;-62
2020/12/30 00:15:09;;;;;;;0.90;0.60;;;3.90;99.90;;;;;;5080272;28;20498;-62
2020/12/30 00:17:38;;;;;;;0.82;0.50;;;3.90;99.90;;;;;;5078736;28;20039;-62
2020/12/30 00:20:04;;;;;;;0.77;0.50;;;4.00;99.90;;;;;;5080164;28;20032;-62
2020/12/30 00:22:30;;;;;;;1.52;0.60;;;4.00;99.90;;;;;;5089086;28;20027;-62
2020/12/30 00:24:56;;;;;;;0.40;0.40;;;4.10;99.90;;;;;;5084511;28;20027;-62
2020/12/30 00:27:21;;;;;;;0.70;0.70;;;4.10;99.90;;;;;;5089491;28;20028;-62
2020/12/30 00:29:47;;;;;;;1.55;0.40;;;4.10;99.90;;;;;;5081142;28;20112;-62
2020/12/30 00:32:13;;;;;;;0.50;0.35;;;4.10;99.90;;;;;;5088219;28;20110;-63
2020/12/30 00:34:40;;;;;;;2.15;0.50;;;4.10;99.90;;;;;;5083279;28;20020;-62
2020/12/30 00:37:06;;;;;;;0.45;0.38;;;4.20;99.90;;;;;;5089151;28;20028;-62
2020/12/30 00:39:32;;;;;;;0.70;0.40;;;4.10;99.90;;;;;;5084244;28;20028;-62
2020/12/30 00:41:58;;;;;;;0.90;0.50;;;4.20;99.90;;;;;;5084095;28;20173;-62
2020/12/30 00:44:24;;;;;;;1.30;0.40;;;4.10;99.90;;;;;;5068890;28;20020;-62
2020/12/30 00:46:59;;;;;;;1.45;0.30;;;4.10;99.90;;;;;;5082643;28;20038;-62
2020/12/30 00:49:26;;;;;;;0.40;0.38;;;4.10;99.90;;;;;;5082742;28;20603;-62
2020/12/30 00:51:54;;;;;;;0.80;0.50;;;4.10;99.90;;;;;;5084706;28;20090;-62
2020/12/30 00:54:21;;;;;;;1.52;0.50;;;4.20;99.90;;;;;;5085536;28;20024;-62
2020/12/30 00:56:47;;;;;;;1.20;0.40;;;4.00;99.90;;;;;;5093001;28;20515;-63
2020/12/30 00:59:14;;;;;;;0.60;0.40;;;4.10;99.90;;;;;;5089151;28;20089;-62
2020/12/30 01:01:40;;;;;;;1.20;0.50;;;4.10;99.90;;;;;;5095026;28;20078;-62
2020/12/30 01:04:06;;;;;;;0.77;0.57;;;4.10;99.90;;;;;;5088207;28;20024;-62
2020/12/30 01:06:31;;;;;;;1.25;0.35;;;4.10;99.90;;;;;;5089208;28;20024;-62
2020/12/30 01:08:57;;;;;;;0.90;0.45;;;4.10;99.90;;;;;;5088409;28;20028;-62
2020/12/30 01:11:27;;;;;;;0.80;0.50;;;4.20;99.90;;;;;;5086827;28;20407;-62
2020/12/30 01:13:54;;;;;;;0.70;0.40;;;4.10;99.90;;;;;;5088943;28;20169;-62
2020/12/30 01:16:20;;;;;;;1.02;0.50;;;4.20;99.90;;;;;;5090512;28;20047;-62
2020/12/30 01:18:45;;;;;;;1.00;0.40;;;4.20;99.90;;;;;;5088652;28;20028;-62
2020/12/30 01:21:11;;;;;;;0.40;0.22;;;4.10;99.90;;;;;;5089188;28;20479;-62
2020/12/30 01:23:37;;;;;;;1.05;0.40;;;4.00;99.90;;;;;;5090033;28;20108;-62
2020/12/30 01:26:02;;;;;;;0.40;0.32;;;4.10;99.90;;;;;;5088185;28;20093;-62
2020/12/30 01:28:28;;;;;;;0.50;0.28;;;3.90;99.90;;;;;;5091117;28;20032;-62
2020/12/30 01:30:54;;;;;;;1.08;0.60;;;4.10;99.90;;;;;;5089366;28;20464;-62
2020/12/30 01:33:19;;;;;;;1.10;0.50;;;4.10;99.90;;;;;;5091195;28;20028;-62
2020/12/30 01:35:45;;;;;;;0.45;0.30;;;4.10;99.90;;;;;;5084052;28;20478;-62
2020/12/30 01:38:11;;;;;;;0.52;0.35;;;3.90;99.90;;;;;;5091090;28;20034;-62
2020/12/30 01:40:36;;;;;;;1.45;0.30;;;4.00;99.90;;;;;;5086657;28;20433;-62
2020/12/30 01:43:02;;;;;;;0.57;0.30;;;4.00;99.90;;;;;;5092208;28;20054;-62
2020/12/30 01:45:27;;;;;;;1.27;0.30;;;4.00;99.90;;;;;;5085712;28;20024;-62
2020/12/30 01:47:53;;;;;;;1.13;0.30;;;4.00;99.90;;;;;;5092595;28;20058;-63
2020/12/30 01:50:19;;;;;;;0.30;0.30;;;3.90;99.90;;;;;;5090346;28;20040;-62
2020/12/30 01:52:45;;;;;;;0.95;0.20;;;3.90;99.90;;;;;;5092045;28;20074;-62
2020/12/30 01:55:11;;;;;;;0.20;0.20;;;3.70;99.90;;;;;;5086729;28;20385;-62
2020/12/30 01:57:37;;;;;;;1.08;0.30;;;3.70;99.90;;;;;;5087640;28;20127;-62
2020/12/30 02:00:06;;;;;;;0.95;0.30;;;3.70;99.90;;;;;;5086101;28;20024;-62
2020/12/30 02:02:34;;;;;;;1.05;0.47;;;3.60;99.90;;;;;;5092014;28;20082;-64
2020/12/30 02:05:00;;;;;;;3.22;0.38;;;3.70;99.90;;;;;;5081802;28;20060;-62
2020/12/30 02:07:26;;;;;;;0.63;0.30;;;3.80;99.90;;;;;;5107530;28;20423;-62
2020/12/30 02:09:58;;;;;;;0.60;0.40;;;3.70;99.90;;;;;;5084269;28;20099;-62
2020/12/30 02:12:24;;;;;;;0.52;0.35;;;3.70;99.90;;;;;;5089665;28;20020;-62
2020/12/30 02:14:50;;;;;;;0.30;0.30;;;3.60;99.90;;;;;;5082348;28;20028;-63
2020/12/30 02:17:16;;;;;;;0.17;0.17;;;3.60;99.90;;;;;;5088278;28;20040;-62
2020/12/30 02:19:43;;;;;;;0.57;0.20;;;3.70;99.90;;;;;;5088925;28;20392;-62
2020/12/30 02:22:12;;;;;;;0.60;0.20;;;3.60;99.90;;;;;;5090159;28;20031;-62
2020/12/30 02:24:38;;;;;;;0.20;0.20;;;3.70;99.90;;;;;;5077540;28;20459;-62
2020/12/30 02:27:05;;;;;;;0.20;0.20;;;3.60;99.90;;;;;;5087277;28;20107;-62
2020/12/30 02:29:32;;;;;;;0.10;0.10;;;3.60;99.90;;;;;;5085067;28;20031;-62
2020/12/30 02:31:58;;;;;;;0.35;0.30;;;3.60;99.90;;;;;;5091041;28;20426;-63
2020/12/30 02:34:25;;;;;;;0.38;0.30;;;3.50;99.90;;;;;;5088004;28;20614;-62
2020/12/30 02:36:51;;;;;;;0.60;0.20;;;3.50;99.90;;;;;;5073176;28;20395;-62
2020/12/30 02:39:18;;;;;;;0.57;0.30;;;3.50;99.90;;;;;;5084880;28;20111;-62
2020/12/30 02:41:44;;;;;;;0.30;0.30;;;3.40;99.90;;;;;;5091103;28;20034;-62
2020/12/30 02:44:10;;;;;;;0.20;0.20;;;3.30;99.90;;;;;;5085046;28;20029;-62
2020/12/30 02:46:35;;;;;;;0.80;0.20;;;3.40;99.90;;;;;;5090765;28;20496;-63
2020/12/30 02:49:01;;;;;;;0.57;0.30;;;3.50;99.90;;;;;;5086416;28;20034;-63
2020/12/30 02:51:27;;;;;;;0.25;0.20;;;3.40;99.90;;;;;;5089564;28;20142;-62
2020/12/30 02:53:52;;;;;;;0.47;0.28;;;3.40;99.90;;;;;;5087315;28;20492;-62
2020/12/30 02:56:18;;;;;;;0.30;0.30;;;3.40;99.90;;;;;;5088174;28;20044;-62
2020/12/30 02:58:45;;;;;;;0.90;0.30;;;3.40;99.90;;;;;;5088490;28;20059;-63
2020/12/30 03:01:11;;;;;;;0.32;0.32;;;3.50;99.90;;;;;;5087075;28;20048;-61
2020/12/30 03:03:38;;;;;;;0.85;0.40;;;3.40;99.90;;;;;;5089340;28;20027;-62
2020/12/30 03:06:04;;;;;;;1.08;0.30;;;3.50;99.90;;;;;;5086482;28;20066;-62
2020/12/30 03:08:30;;;;;;;1.92;0.22;;;3.40;99.90;;;;;;5088648;28;20435;-62
2020/12/30 03:10:55;;;;;;;2.45;0.35;;;3.50;99.90;;;;;;5082844;28;20012;-62
2020/12/30 03:13:21;;;;;;;0.85;0.30;;;3.40;99.90;;;;;;5089359;28;20032;-62
2020/12/30 03:15:47;;;;;;;0.50;0.30;;;3.40;99.90;;;;;;5081059;28;20556;-62
2020/12/30 03:18:13;;;;;;;0.60;0.30;;;3.30;99.90;;;;;;5087920;28;20032;-61
2020/12/30 03:20:38;;;;;;;0.20;0.20;;;3.30;99.90;;;;;;5086302;28;20392;-61
2020/12/30 03:23:04;;;;;;;1.35;0.43;;;3.40;99.90;;;;;;5090492;28;20519;-62
2020/12/30 03:25:29;;;;;;;0.57;0.32;;;3.30;99.90;;;;;;5084043;28;20446;-61
2020/12/30 03:27:56;;;;;;;1.00;0.43;;;3.50;99.90;;;;;;5090390;28;20515;-62
2020/12/30 03:30:23;;;;;;;1.15;0.40;;;3.50;99.90;;;;;;5083663;28;20111;-62
2020/12/30 03:32:49;;;;;;;3.22;0.30;;;3.60;99.90;;;;;;5090201;28;20112;-62
2020/12/30 03:35:15;;;;;;;1.65;0.50;;;3.70;99.90;;;;;;5083699;28;20039;-61
2020/12/30 03:37:40;;;;;;;0.57;0.40;;;3.50;99.90;;;;;;5090263;28;20500;-62
2020/12/30 03:40:06;;;;;;;1.95;0.30;;;3.60;99.90;;;;;;5083558;28;20081;-62
2020/12/30 03:42:32;;;;;;;2.95;0.50;;;3.60;99.90;;;;;;5090079;28;20248;-63
2020/12/30 03:44:57;;;;;;;4.72;1.25;;;3.60;99.90;;;;;;5083439;28;20093;-62
2020/12/30 03:47:24;;;;;;;2.30;0.50;;;3.60;99.90;;;;;;5090178;28;20052;-62
2020/12/30 03:49:49;;;;;;;5.25;0.85;;;3.70;99.90;;;;;;5083415;28;20017;-61
2020/12/30 03:52:16;;;;;;;1.98;0.60;;;3.70;99.90;;;;;;5089806;28;20584;-62
2020/12/30 03:54:42;;;;;;;1.05;0.47;;;3.80;99.90;;;;;;5082832;28;20020;-62
2020/12/30 03:57:08;;;;;;;1.45;0.50;;;3.80;99.90;;;;;;5087631;28;20439;-61
2020/12/30 03:59:33;;;;;;;2.38;0.73;;;3.80;99.90;;;;;;5066028;28;20445;-62
2020/12/30 04:01:59;;;;;;;7.95;0.60;;;3.90;99.90;;;;;;5089767;28;20119;-62
2020/12/30 04:04:25;;;;;;;1.25;0.57;;;4.10;99.90;;;;;;5086342;28;20020;-61
2020/12/30 04:06:50;;;;;;;1.80;0.55;;;4.00;99.90;;;;;;5083649;28;20400;-62
2020/12/30 04:09:17;;;;;;;3.50;0.60;;;4.00;99.90;;;;;;5087210;28;20024;-62
2020/12/30 04:11:42;;;;;;;3.65;0.70;;;4.20;99.90;;;;;;5082141;28;20606;-65
2020/12/30 04:14:08;;;;;;;2.10;0.70;;;4.20;99.90;;;;;;5087617;28;20092;-62
2020/12/30 04:16:33;;;;;;;2.70;0.60;;;4.20;99.90;;;;;;5089062;28;20126;-61
2020/12/30 04:18:59;;;;;;;2.58;0.50;;;4.20;99.90;;;;;;5086710;28;20036;-62
2020/12/30 04:21:25;;;;;;;2.78;0.70;;;4.30;99.90;;;;;;5089360;28;20032;-62
2020/12/30 04:23:55;;;;;;;3.05;0.80;;;4.20;99.90;;;;;;5086194;28;20509;-62
2020/12/30 04:26:21;;;;;;;4.88;1.10;;;4.20;99.90;;;;;;5086899;28;20027;-61
2020/12/30 04:28:47;;;;;;;3.05;0.80;;;4.20;99.90;;;;;;5086680;28;20024;-62
2020/12/30 04:31:14;;;;;;;2.45;0.88;;;4.20;99.90;;;;;;5071339;28;20111;-61
2020/12/30 04:33:40;;;;;;;4.15;0.80;;;4.30;99.90;;;;;;5087570;28;20018;-61
2020/12/30 04:36:07;;;;;;;2.80;0.50;;;4.20;99.90;;;;;;5085459;28;20034;-62
2020/12/30 04:38:34;;;;;;;3.17;0.70;;;4.20;99.90;;;;;;5087562;28;20036;-61
2020/12/30 04:41:04;;;;;;;2.42;0.70;;;4.30;99.90;;;;;;5083424;28;20502;-62
2020/12/30 04:43:33;;;;;;;3.33;0.55;;;4.30;99.90;;;;;;5087480;28;20024;-61
2020/12/30 04:45:59;;;;;;;3.15;0.80;;;4.10;99.90;;;;;;5081619;28;20317;-62
2020/12/30 04:48:26;;;;;;;4.65;0.98;;;4.20;99.90;;;;;;5087689;28;20028;-61
2020/12/30 04:50:52;;;;;;;4.47;1.27;;;4.10;99.90;;;;;;5085831;28;20058;-62
2020/12/30 04:53:23;;;;;;;6.05;0.73;;;4.10;99.90;;;;;;5088397;28;20024;-62
2020/12/30 04:55:50;;;;;;;6.32;0.60;;;4.20;99.90;;;;;;5086720;28;20043;-62
2020/12/30 04:58:19;;;;;;;3.63;0.50;;;4.20;99.90;;;;;;5088290;28;20024;-62
2020/12/30 05:00:46;;;;;;;0.90;0.55;;;4.30;99.90;;;;;;5079233;28;20020;-61
2020/12/30 05:03:13;;;;;;;3.72;0.88;;;4.30;99.90;;;;;;5089010;28;20028;-62
2020/12/30 05:05:41;;;;;;;3.95;1.00;;;4.30;99.90;;;;;;5086237;28;20017;-61
2020/12/30 05:08:14;;;;;;;2.58;0.70;;;4.30;99.90;;;;;;5089015;28;20051;-62
2020/12/30 05:10:42;;;;;;;3.42;0.80;;;4.30;99.90;;;;;;5083627;28;20028;-62
2020/12/30 05:13:08;;;;;;;1.65;0.70;;;4.40;99.90;;;;;;5089182;28;20016;-62
2020/12/30 05:15:35;;;;;;;1.25;0.65;;;4.30;99.90;;;;;;5082604;28;20059;-62
2020/12/30 05:18:06;;;;;;;4.97;0.88;;;4.30;99.90;;;;;;5088365;28;20039;-62
2020/12/30 05:20:36;;;;;;;10.00;0.90;;;4.40;99.90;;;;;;5081962;28;20024;-62
2020/12/30 05:23:08;;;;;;;3.13;0.77;;;4.40;99.90;;;;;;5069386;28;20037;-62
2020/12/30 05:25:36;;;;;;;4.32;0.93;;;4.30;99.90;;;;;;5083176;28;20016;-61
2020/12/30 05:28:03;;;;;;;6.38;1.00;;;4.50;99.90;;;;;;5086280;28;20484;-61
2020/12/30 05:30:31;;;;;;;7.80;0.70;;;4.40;99.90;;;;;;5082417;28;20024;-62
2020/12/30 05:32:58;;;;;;;4.25;0.85;;;4.30;99.90;;;;;;5086852;28;20024;-61
2020/12/30 05:35:24;;;;;;;2.97;0.90;;;4.40;99.90;;;;;;5076120;28;20032;-62
2020/12/30 05:37:50;;;;;;;5.95;0.90;;;4.50;99.90;;;;;;5087635;28;20441;-62
2020/12/30 05:40:20;;;;;;;3.22;0.93;;;4.40;99.90;;;;;;5083139;28;20102;-62
2020/12/30 05:42:47;;;;;;;3.42;0.73;;;4.60;99.90;;;;;;5079169;28;20055;-62
2020/12/30 05:45:25;;;;;;;4.25;1.20;;;4.50;99.90;;;;;;5087730;28;20109;-62
2020/12/30 05:47:51;;;;;;;5.80;0.90;;;4.50;99.90;;;;;;5089610;28;20112;-61
2020/12/30 05:50:24;;;;;;;2.30;0.85;;;4.50;99.90;;;;;;5081290;28;20186;-62
2020/12/30 05:52:53;;;;;;;9.88;1.95;;;4.40;99.90;;;;;;5091398;28;20024;-61
2020/12/30 05:55:29;;;;;;;5.43;0.70;;;4.50;99.90;;;;;;5087251;28;20057;-66
2020/12/30 05:57:55;;;;;;;4.30;0.85;;;4.50;99.90;;;;;;5075144;28;20055;-60
2020/12/30 06:00:29;;;;;;;5.43;0.75;;;5.10;99.90;;;;;;5086815;28;20504;-61
2020/12/30 06:02:54;;;;;;;3.25;0.98;;;5.00;99.90;;;;;;5089541;28;20016;-62
2020/12/30 06:05:24;;;;;;;1.55;0.70;;;4.70;99.90;;;;;;5085779;28;20031;-61
2020/12/30 06:07:53;;;;;;;5.93;0.90;;;4.60;99.90;;;;;;5088013;28;20024;-61
2020/12/30 06:10:23;;;;;;;5.50;1.42;;;4.70;99.90;;;;;;5088820;28;20088;-61
2020/12/30 06:12:49;;;;;;;4.93;1.08;;;4.60;99.90;;;;;;5090073;28;20032;-61
2020/12/30 06:15:17;;;;;;;3.00;1.40;;;4.50;99.90;;;;;;5089529;28;20042;-60
2020/12/30 06:17:53;;;;;;;5.57;1.45;;;4.60;99.90;;;;;;5090642;28;20032;-60
2020/12/30 06:20:30;;;;;;;2.42;1.00;;;4.50;99.90;;;;;;5086013;28;20047;-61
2020/12/30 06:23:07;;;;;;;5.05;1.30;;;4.60;99.90;;;;;;5087820;28;20388;-67
2020/12/30 06:25:34;;;;;;;;;;;4.60;99.90;;;;;;5084561;28;20027;-61
2020/12/30 06:28:10;;;;;;;4.32;1.20;;;4.50;99.90;;;;;;5090692;28;19912;-60
2020/12/30 06:30:37;;;;;;;4.10;0.80;;;4.50;99.90;;;;;;5083774;28;20020;-66
2020/12/30 06:33:04;;;;;;;6.72;1.15;;;4.60;99.90;;;;;;5087351;28;20524;-69
2020/12/30 06:35:32;;;;;;;3.42;1.08;;;4.70;99.90;;;;;;5082388;28;20646;-60
2020/12/30 06:37:58;;;;;;;6.18;0.93;;;4.60;99.90;;;;;;5076163;28;20176;-61
2020/12/30 06:40:27;;;;;;;2.60;1.13;;;4.60;99.90;;;;;;5086518;28;20024;-61
2020/12/30 06:42:58;;;;;;;4.78;1.10;;;4.60;99.90;;;;;;5078028;28;20496;-62
2020/12/30 06:45:47;;;;;;;4.05;0.93;;;4.60;99.90;;;;;;5087100;28;20031;-61
2020/12/30 06:48:13;;;;;;;3.33;1.00;;;4.60;99.90;;;;;;5069823;28;20041;-60
2020/12/30 06:50:40;;;;;;;2.00;0.90;;;4.50;99.90;;;;;;5081551;28;20016;-60
2020/12/30 06:53:24;;;;;;;5.70;1.50;;;4.60;99.90;;;;;;5086404;28;20040;-61
2020/12/30 06:55:54;;;;;;;2.78;1.00;;;4.60;99.90;;;;;;5089602;28;20077;-60
2020/12/30 06:58:44;;;;;;;3.92;1.15;;;4.60;99.90;;;;;;5089626;28;20036;-73
2020/12/30 07:01:11;;;;;;;3.40;1.10;;;4.50;99.90;;;;;;5088965;28;20492;-70
2020/12/30 07:03:37;;;;;;;3.88;1.05;;;4.60;99.90;;;;;;5088027;28;20008;-62
2020/12/30 07:06:29;;;;;;;5.07;1.27;;;4.50;99.90;;;;;;5084030;28;20172;-61
2020/12/30 07:09:00;;;;;;;5.40;1.17;;;4.40;99.90;;;;;;5077460;28;20012;-61
2020/12/30 07:11:38;;;;;;;4.63;1.25;;;4.60;99.90;;;;;;5082152;28;20082;-61
2020/12/30 07:14:12;;;;;;;4.45;0.90;;;4.50;99.90;;;;;;5086125;28;20175;-61
2020/12/30 07:16:39;;;;;;;6.90;1.10;;;4.60;99.90;;;;;;5081947;28;20071;-61
2020/12/30 07:19:32;;;;;;;3.75;1.25;;;4.50;99.90;;;;;;5086528;28;20137;-60
2020/12/30 07:22:05;;;;;;;3.30;1.13;;;4.50;99.90;;;;;;5080164;28;20028;-60
2020/12/30 07:24:43;;;;;;;6.70;1.15;;;4.60;99.90;;;;;;5085935;28;20020;-61
2020/12/30 07:27:11;;;;;;;6.53;1.00;;;4.40;99.90;;;;;;5089478;28;20036;-60
2020/12/30 07:29:38;;;;;;;4.10;1.10;;;4.50;99.90;;;;;;5080164;28;20028;-62
2020/12/30 07:32:05;;;;;;;4.22;1.20;;;4.50;99.90;;;;;;5080270;28;20039;-61
2020/12/30 07:34:36;;;;;;;7.82;1.10;;;4.50;99.90;;;;;;5079121;28;20032;-61
2020/12/30 07:37:04;;;;;;;7.00;1.00;;;4.60;99.90;;;;;;5090098;28;20036;-61
2020/12/30 07:39:42;;;;;;;3.97;1.10;;;4.70;99.90;;;;;;5085178;28;20020;-61
2020/12/30 07:42:11;;;;;;;2.35;0.85;;;4.70;99.90;;;;;;5069013;28;20031;-61
2020/12/30 07:44:48;;;;;;;2.63;0.70;;;4.70;99.90;;;;;;5083539;28;20044;-61
2020/12/30 07:47:14;;;;;;;2.40;0.80;;;4.70;99.90;;;;;;5090166;28;20602;-61
2020/12/30 07:49:40;;;;;;;6.20;1.15;;;4.70;99.90;;;;;;5083467;28;20551;-61
2020/12/30 07:52:07;;;;;;;4.40;1.17;;;4.60;99.90;;;;;;5089748;28;20095;-61
2020/12/30 07:54:33;;;;;;;3.35;1.13;;;4.70;99.90;;;;;;5083365;28;20028;-61
2020/12/30 07:57:06;;;;;;;5.15;1.30;;;4.60;99.90;;;;;;5089376;28;20024;-61
2020/12/30 07:59:33;;;;;;;9.13;1.33;;;4.60;99.90;;;;;;5083456;28;20078;-61
2020/12/30 08:02:02;;;;;;;3.17;0.93;;;4.60;99.90;;;;;;5089651;28;20020;-61
2020/12/30 08:04:29;;;;;;;3.80;1.20;;;4.60;99.90;;;;;;5082689;28;20036;-61
2020/12/30 08:06:55;;;;;;;2.85;0.70;;;4.60;99.90;;;;;;5089669;28;20488;-61
2020/12/30 08:09:26;;;;;;;3.08;0.90;;;4.60;99.90;;;;;;5082903;28;20031;-61
2020/12/30 08:11:54;;;;;;;2.53;0.73;;;4.70;99.90;;;;;;5089629;28;20024;-60
2020/12/30 08:14:21;;;;;;;2.85;1.00;;;4.60;99.90;;;;;;5086441;28;20032;-61
2020/12/30 08:17:07;;;;;;;4.10;1.20;;;4.70;99.90;;;;;;5084149;28;20136;-61
2020/12/30 08:19:40;;;;;;;5.38;1.48;;;4.70;99.90;;;;;;5084045;28;20035;-61
2020/12/30 08:22:10;;;;;;;2.83;1.45;;;4.80;99.90;;;;;;5090270;28;20115;-61
2020/12/30 08:24:38;;;;;;;3.67;1.40;;;4.80;99.90;;;;;;5085854;28;20036;-66
2020/12/30 08:27:05;;;;;;;3.15;1.15;;;4.80;99.90;;;;;;5088003;28;20064;-65
2020/12/30 08:29:42;;;;;;;2.55;1.10;;;4.80;99.90;;;;;;5064430;28;20492;-61
2020/12/30 08:32:34;;;;;;;4.70;1.00;;;4.90;99.90;;;;;;5088767;28;20032;-61
2020/12/30 08:35:03;;;;;;;3.47;1.02;;;4.80;99.90;;;;;;5085910;28;20024;-61
2020/12/30 08:37:32;;;;;;;6.72;1.17;;;4.80;99.90;;;;;;5088145;28;20693;-62
2020/12/30 08:40:25;;;;;;;3.67;0.88;;;4.90;99.90;;;;;;5085786;28;20684;-61
2020/12/30 08:42:53;;;;;;;2.33;0.80;;;4.90;99.90;;;;;;5077134;28;20076;-62
2020/12/30 08:45:25;;;;;;;1.58;0.90;;;4.90;99.90;;;;;;5085314;28;20451;-62
2020/12/30 08:47:53;;;;;;;4.00;1.00;;;5.00;99.90;;;;;;5086779;28;20030;-61
2020/12/30 08:50:23;;;;;;;3.25;1.17;;;4.80;99.90;;;;;;5084456;28;20024;-62
2020/12/30 08:52:49;;;;;;;3.55;1.23;;;4.90;99.90;;;;;;5085694;28;20434;-61
2020/12/30 08:55:16;;;;;;;2.50;1.15;;;4.80;99.90;;;;;;5083367;28;20028;-61
2020/12/30 08:57:46;;;;;;;5.07;1.20;;;4.90;99.90;;;;;;5070800;28;20404;-61
2020/12/30 09:00:19;;;;;;;6.03;1.50;;;4.90;99.90;;;;;;5082338;28;20025;-62
2020/12/30 09:02:47;;;;;;;2.95;1.23;;;4.90;99.90;;;;;;5085572;28;20111;-61
2020/12/30 09:05:12;;;;;;;3.78;1.42;;;5.00;99.90;;;;;;5086219;28;20074;-61
2020/12/30 09:07:39;;;;;;;3.03;1.80;;;5.00;99.90;;;;;;5088203;28;20027;-66
2020/12/30 09:10:12;;;;;;;6.53;1.50;;;5.10;99.90;;;;;;5082277;28;20028;-61
2020/12/30 09:12:39;;;;;;;6.20;1.98;;;5.10;99.90;;;;;;5087782;28;20047;-61
2020/12/30 09:15:06;;;;;;;2.63;1.75;;;5.30;99.90;;;;;;5079839;28;20082;-65
2020/12/30 09:17:33;;;;;;;3.92;1.70;;;5.30;99.90;;;;;;5091442;28;20028;-61
2020/12/30 09:20:12;;;;;;;4.95;1.73;;;5.40;99.90;;;;;;5085522;28;20027;-61
2020/12/30 09:22:38;;;;;;;8.68;1.58;;;5.50;99.90;;;;;;5090728;28;20768;-62
2020/12/30 09:25:05;;;;;;;5.82;1.77;;;5.40;99.90;;;;;;5090235;28;20020;-62
2020/12/30 09:27:34;;;;;;;5.25;1.65;;;5.40;99.90;;;;;;5089742;28;20036;-61
2020/12/30 09:30:14;;;;;;;2.50;1.67;;;5.50;99.90;;;;;;5083521;28;20492;-62
2020/12/30 09:32:41;;;;;;;5.43;1.50;;;5.40;99.90;;;;;;5091330;28;20035;-62
2020/12/30 09:35:09;;;;;;;3.00;1.60;;;5.50;99.90;;;;;;5088546;28;20058;-62
2020/12/30 09:37:36;;;;;;;3.97;1.67;;;5.50;99.90;;;;;;5089521;28;20040;-61
2020/12/30 09:40:13;;;;;;;5.47;1.58;;;5.50;99.90;;;;;;5086074;28;20035;-62
2020/12/30 09:42:40;;;;;;;3.90;1.92;;;5.60;99.90;;;;;;5079511;28;20020;-62
2020/12/30 09:45:11;;;;;;;3.50;1.77;;;5.60;99.90;;;;;;5088418;28;20048;-62
2020/12/30 09:47:38;;;;;;;5.60;1.88;;;5.70;99.90;;;;;;5087325;28;20020;-63
2020/12/30 09:50:05;;;;;;;5.90;1.60;;;5.70;99.90;;;;;;5086157;28;20054;-62
2020/12/30 09:52:38;;;;;;;3.15;1.02;;;5.80;99.90;;;;;;5090823;28;20081;-61
2020/12/30 09:55:05;;;;;;;3.80;1.08;;;5.70;99.90;;;;;;5089698;28;20369;-62
2020/12/30 09:57:31;;;;;;;4.03;1.10;;;5.60;99.90;;;;;;5078862;28;20043;-62
2020/12/30 09:59:57;;;;;;;9.07;1.67;;;5.60;99.90;;;;;;5089937;28;20028;-62
2020/12/30 10:02:22;;;;;;;2.80;1.23;;;5.70;99.90;;;;;;5089002;28;20020;-61
2020/12/30 10:04:48;;;;;;;6.32;1.52;;;6.00;99.90;;;;;;5089683;28;20024;-62
2020/12/30 10:07:14;;;;;;;5.45;1.60;;;6.10;99.90;;;;;;5090281;28;20035;-62
2020/12/30 10:09:39;;;;;;;2.90;1.48;;;6.20;99.90;;;;;;5086524;28;20023;-62
2020/12/30 10:12:05;;;;;;;5.43;1.67;;;6.20;99.90;;;;;;5091515;28;20031;-62
2020/12/30 10:14:31;;;;;;;5.63;1.60;;;6.20;99.90;;;;;;5086807;28;20392;-62
2020/12/30 10:16:56;;;;;;;2.95;1.23;;;6.30;99.90;;;;;;5090323;28;20051;-62
2020/12/30 10:19:22;;;;;;;4.00;1.23;;;6.30;99.90;;;;;;5088468;28;20059;-62
2020/12/30 10:21:48;;;;;;;4.03;1.40;;;6.30;99.90;;;;;;5090042;28;20559;-62
2020/12/30 10:24:13;;;;;;;3.00;1.30;;;6.40;99.90;;;;;;5087573;28;20610;-62
2020/12/30 10:26:39;;;;;;;4.07;1.58;;;6.40;99.90;;;;;;5080771;28;20019;-62
2020/12/30 10:29:05;;;;;;;2.88;1.52;;;6.50;99.90;;;;;;5080412;28;20028;-62
2020/12/30 10:31:31;;;;;;;4.03;1.45;;;6.60;99.90;;;;;;5088343;28;20024;-62
2020/12/30 10:33:56;;;;;;;2.33;1.10;;;7.10;99.90;;;;;;5088009;28;20097;-62
2020/12/30 10:36:28;;;;;;;4.50;1.60;;;7.20;99.90;;;;;;5084087;28;20028;-62
2020/12/30 10:38:54;;;;;;;2.97;0.85;;;7.00;99.90;;;;;;5076390;28;20605;-62
2020/12/30 10:41:20;;;;;;;3.33;0.93;;;7.10;99.90;;;;;;5085479;28;20511;-62
2020/12/30 10:43:46;;;;;;;5.22;1.58;;;7.10;99.90;;;;;;5077382;28;20052;-62
2020/12/30 10:46:16;;;;;;;2.13;1.30;;;6.80;99.90;;;;;;5086706;28;20016;-62
2020/12/30 10:48:46;;;;;;;3.17;1.73;;;6.90;99.90;;;;;;5089054;28;20103;-62
2020/12/30 10:51:16;;;;;;;5.57;1.58;;;6.80;99.90;;;;;;5079974;28;20021;-62
2020/12/30 10:53:43;;;;;;;4.20;1.60;;;7.00;99.90;;;;;;5086879;28;20111;-62
2020/12/30 10:56:09;;;;;;;5.13;2.08;;;6.90;99.90;;;;;;5086442;28;20020;-63
2020/12/30 10:58:38;;;;;;;3.25;1.50;;;6.90;99.90;;;;;;5087371;28;20029;-62
2020/12/30 11:01:11;;;;;;;1.77;1.10;;;6.90;99.90;;;;;;5086593;28;20031;-61
2020/12/30 11:03:38;;;;;;;2.22;1.27;;;6.90;99.90;;;;;;5070584;28;20051;-62
2020/12/30 11:06:05;;;;;;;3.22;1.65;;;6.90;99.90;;;;;;5086257;28;20074;-62
2020/12/30 11:08:31;;;;;;;4.55;1.48;;;6.90;99.90;;;;;;5076147;28;20093;-62
2020/12/30 11:10:58;;;;;;;4.55;1.60;;;6.80;99.90;;;;;;5081067;28;20024;-62
2020/12/30 11:13:25;;;;;;;3.95;1.35;;;7.00;99.90;;;;;;5085551;28;20366;-62
2020/12/30 11:15:51;;;;;;;3.70;1.05;;;7.00;99.90;;;;;;5085522;28;20052;-62
2020/12/30 11:18:17;;;;;;;3.35;1.50;;;7.00;99.90;;;;;;5090444;28;20036;-62
2020/12/30 11:20:42;;;;;;;4.80;1.10;;;6.90;99.90;;;;;;5085365;28;20084;-62
2020/12/30 11:23:08;;;;;;;2.85;0.80;;;7.00;99.90;;;;;;5090313;28;20028;-63
2020/12/30 11:25:34;;;;;;;2.40;0.93;;;6.90;99.90;;;;;;5085265;28;20032;-62
2020/12/30 11:28:01;;;;;;;3.03;1.00;;;7.10;99.90;;;;;;5088781;28;20012;-62
2020/12/30 11:30:27;;;;;;;4.22;1.10;;;6.90;99.90;;;;;;5086735;28;20613;-61
2020/12/30 11:32:53;;;;;;;6.45;1.42;;;7.10;99.90;;;;;;5090357;28;20031;-62
2020/12/30 11:35:18;;;;;;;7.28;1.80;;;7.10;99.90;;;;;;5084352;28;20031;-62
2020/12/30 11:37:44;;;;;;;4.07;1.45;;;7.00;99.90;;;;;;5084566;28;20396;-62
2020/12/30 11:40:10;;;;;;;5.65;1.38;;;7.20;99.90;;;;;;5085689;28;20073;-61
2020/12/30 11:42:35;;;;;;;3.83;1.20;;;7.20;99.90;;;;;;5079648;28;20389;-62
2020/12/30 11:45:01;;;;;;;2.97;1.02;;;7.40;99.90;;;;;;5080604;28;20032;-61
2020/12/30 11:47:27;;;;;;;3.90;1.60;;;7.70;99.90;;;;;;5088409;28;20024;-62
2020/12/30 11:49:53;;;;;;;5.93;1.27;;;7.70;99.90;;;;;;5083577;28;20027;-63
2020/12/30 11:52:19;;;;;;;4.68;1.33;;;7.50;99.90;;;;;;5088695;28;20600;-62
2020/12/30 11:54:45;;;;;;;5.80;1.15;;;7.50;99.90;;;;;;5082975;28;20024;-62
2020/12/30 11:57:11;;;;;;;4.22;1.45;;;7.50;99.90;;;;;;5085349;28;20491;-62
2020/12/30 11:59:37;;;;;;;2.95;1.58;;;7.50;99.90;;;;;;5083542;28;20099;-62
2020/12/30 12:02:03;;;;;;;3.33;1.55;;;7.60;99.90;;;;;;5078169;28;20074;-61
2020/12/30 12:04:29;;;;;;;3.70;1.52;;;7.70;99.90;;;;;;5079257;28;20020;-63
2020/12/30 12:07:01;;;;;;;3.20;1.08;;;7.80;99.90;;;;;;5089171;28;20031;-63
2020/12/30 12:09:28;;;;;;;3.63;1.60;;;7.80;99.90;;;;;;5086130;28;20059;-62
2020/12/30 12:11:54;;;;;;;5.63;1.40;;;7.80;99.90;;;;;;5077666;28;20078;-62
2020/12/30 12:14:20;;;;;;;4.50;1.35;;;7.90;99.90;;;;;;5072316;28;20027;-61
2020/12/30 12:16:53;;;;;;;3.13;1.30;;;8.10;99.90;;;;;;5088172;28;20102;-62
2020/12/30 12:19:19;;;;;;;3.30;1.55;;;8.30;99.90;;;;;;5087130;28;20020;-61
2020/12/30 12:21:45;;;;;;;5.88;2.00;;;8.10;99.90;;;;;;5089163;28;20026;-61
2020/12/30 12:24:14;;;;;;;4.05;1.70;;;8.20;99.90;;;;;;5087134;28;20077;-61
2020/12/30 12:26:40;;;;;;;4.68;1.10;;;8.10;99.90;;;;;;5089011;28;20021;-60
2020/12/30 12:29:38;;;;;;;3.97;1.60;;;7.90;99.90;;;;;;5089864;28;20396;-61
2020/12/30 12:32:09;;;;;;;3.90;1.73;;;8.00;99.90;;;;;;5084556;28;20016;-62
2020/12/30 12:34:36;;;;;;;3.13;1.08;;;8.10;99.90;;;;;;5084384;28;20020;-62
2020/12/30 12:37:03;;;;;;;4.43;1.20;;;8.20;99.90;;;;;;5081994;28;20054;-62
2020/12/30 12:39:28;;;;;;;7.03;1.52;;;8.10;99.90;;;;;;5082924;28;20036;-62
2020/12/30 12:41:55;;;;;;;5.80;1.42;;;8.10;99.90;;;;;;5077573;28;20021;-61
2020/12/30 12:44:22;;;;;;;7.25;1.77;;;8.20;99.90;;;;;;5075785;28;20104;-67
2020/12/30 12:46:48;;;;;;;4.93;1.67;;;8.40;99.90;;;;;;5088886;28;20019;-63
2020/12/30 12:49:14;;;;;;;4.95;1.42;;;8.20;99.90;;;;;;5066657;28;20037;-63
2020/12/30 12:51:48;;;;;;;8.52;1.63;;;8.30;99.90;;;;;;5085676;28;20038;-64
2020/12/30 12:54:14;;;;;;;5.93;1.67;;;8.20;99.90;;;;;;5087069;28;20082;-64
2020/12/30 12:56:41;;;;;;;4.28;1.90;;;8.10;99.90;;;;;;5088587;28;20112;-64
2020/12/30 12:59:07;;;;;;;3.50;1.50;;;7.90;99.90;;;;;;5089160;28;20024;-63
2020/12/30 13:01:33;;;;;;;6.05;1.65;;;7.90;99.90;;;;;;5091065;28;20376;-64